sensor_id;sensor_type;location;lat;lon;timestamp;P1;durP1;ratioP1;P2;durP2;ratioP2
26822;SDS011;14852;51.910;8.878;2023-05-07T00:01:56;15.25;;;11.65;;
26822;SDS011;14852;51.910;8.878;2023-05-07T00:04:22;11.05;;;9.93;;
26822;SDS011;14852;51.910;8.878;2023-05-07T00:06:47;11.73;;;10.25;;
26822;SDS011;14852;51.910;8.878;2023-05-07T00:09:13;11.65;;;10.40;;
26822;SDS011;14852;51.910;8.878;2023-05-07T00:11:39;11.88;;;10.65;;
26822;SDS011;14852;51.910;8.878;2023-05-07T00:14:05;13.65;;;11.32;;
26822;SDS011;14852;51.910;8.878;2023-05-07T00:16:31;12.32;;;10.13;;
26822;SDS011;14852;51.910;8.878;2023-05-07T00:18:57;11.90;;;10.63;;
26822;SDS011;14852;51.910;8.878;2023-05-07T00:21:22;13.57;;;10.10;;
26822;SDS011;14852;51.910;8.878;2023-05-07T00:23:51;10.73;;;9.50;;
26822;SDS011;14852;51.910;8.878;2023-05-07T00:26:18;12.57;;;10.63;;
26822;SDS011;14852;51.910;8.878;2023-05-07T00:28:46;13.73;;;10.68;;
26822;SDS011;14852;51.910;8.878;2023-05-07T00:31:12;11.23;;;10.05;;
26822;SDS011;14852;51.910;8.878;2023-05-07T00:33:38;11.95;;;10.75;;
26822;SDS011;14852;51.910;8.878;2023-05-07T00:36:04;17.63;;;12.07;;
26822;SDS011;14852;51.910;8.878;2023-05-07T00:38:30;12.50;;;10.35;;
26822;SDS011;14852;51.910;8.878;2023-05-07T00:40:56;14.05;;;12.25;;
26822;SDS011;14852;51.910;8.878;2023-05-07T00:43:21;11.85;;;10.13;;
26822;SDS011;14852;51.910;8.878;2023-05-07T00:45:47;12.88;;;10.43;;
26822;SDS011;14852;51.910;8.878;2023-05-07T00:48:13;13.43;;;9.98;;
26822;SDS011;14852;51.910;8.878;2023-05-07T00:50:40;11.23;;;9.88;;
26822;SDS011;14852;51.910;8.878;2023-05-07T00:53:06;11.20;;;9.85;;
26822;SDS011;14852;51.910;8.878;2023-05-07T00:55:32;11.68;;;10.45;;
26822;SDS011;14852;51.910;8.878;2023-05-07T00:57:58;12.77;;;10.52;;
26822;SDS011;14852;51.910;8.878;2023-05-07T01:00:24;12.70;;;11.43;;
26822;SDS011;14852;51.910;8.878;2023-05-07T01:02:50;16.55;;;12.30;;
26822;SDS011;14852;51.910;8.878;2023-05-07T01:05:16;13.75;;;12.18;;
26822;SDS011;14852;51.910;8.878;2023-05-07T01:07:44;14.43;;;11.52;;
26822;SDS011;14852;51.910;8.878;2023-05-07T01:10:10;13.85;;;11.63;;
26822;SDS011;14852;51.910;8.878;2023-05-07T01:12:37;12.18;;;10.93;;
26822;SDS011;14852;51.910;8.878;2023-05-07T01:15:05;12.60;;;11.32;;
26822;SDS011;14852;51.910;8.878;2023-05-07T01:17:33;16.13;;;11.82;;
26822;SDS011;14852;51.910;8.878;2023-05-07T01:20:02;12.52;;;11.23;;
26822;SDS011;14852;51.910;8.878;2023-05-07T01:22:31;15.27;;;10.82;;
26822;SDS011;14852;51.910;8.878;2023-05-07T01:25:06;11.98;;;10.13;;
26822;SDS011;14852;51.910;8.878;2023-05-07T01:27:33;13.60;;;11.27;;
26822;SDS011;14852;51.910;8.878;2023-05-07T01:30:01;16.80;;;13.13;;
26822;SDS011;14852;51.910;8.878;2023-05-07T01:35:19;13.75;;;10.65;;
26822;SDS011;14852;51.910;8.878;2023-05-07T01:37:48;15.32;;;11.85;;
26822;SDS011;14852;51.910;8.878;2023-05-07T01:40:14;14.77;;;12.20;;
26822;SDS011;14852;51.910;8.878;2023-05-07T01:42:41;16.38;;;13.40;;
26822;SDS011;14852;51.910;8.878;2023-05-07T01:45:08;13.13;;;11.73;;
26822;SDS011;14852;51.910;8.878;2023-05-07T01:47:36;13.95;;;12.25;;
26822;SDS011;14852;51.910;8.878;2023-05-07T01:50:03;14.70;;;12.15;;
26822;SDS011;14852;51.910;8.878;2023-05-07T01:52:31;13.32;;;11.82;;
26822;SDS011;14852;51.910;8.878;2023-05-07T01:54:57;13.05;;;11.57;;
26822;SDS011;14852;51.910;8.878;2023-05-07T01:57:22;16.83;;;11.88;;
26822;SDS011;14852;51.910;8.878;2023-05-07T01:59:48;15.20;;;13.45;;
26822;SDS011;14852;51.910;8.878;2023-05-07T02:02:14;13.20;;;11.85;;
26822;SDS011;14852;51.910;8.878;2023-05-07T02:04:42;13.45;;;12.05;;
26822;SDS011;14852;51.910;8.878;2023-05-07T02:07:09;12.80;;;11.45;;
26822;SDS011;14852;51.910;8.878;2023-05-07T02:09:36;13.73;;;11.70;;
26822;SDS011;14852;51.910;8.878;2023-05-07T02:12:02;13.13;;;11.73;;
26822;SDS011;14852;51.910;8.878;2023-05-07T02:14:28;12.77;;;11.48;;
26822;SDS011;14852;51.910;8.878;2023-05-07T02:16:54;16.08;;;12.48;;
26822;SDS011;14852;51.910;8.878;2023-05-07T02:19:20;12.95;;;11.63;;
26822;SDS011;14852;51.910;8.878;2023-05-07T02:21:46;12.32;;;11.02;;
26822;SDS011;14852;51.910;8.878;2023-05-07T02:24:12;12.18;;;10.88;;
26822;SDS011;14852;51.910;8.878;2023-05-07T02:26:42;13.90;;;12.35;;
26822;SDS011;14852;51.910;8.878;2023-05-07T02:29:07;13.25;;;11.80;;
26822;SDS011;14852;51.910;8.878;2023-05-07T02:31:33;14.40;;;12.45;;
26822;SDS011;14852;51.910;8.878;2023-05-07T02:34:00;13.50;;;12.13;;
26822;SDS011;14852;51.910;8.878;2023-05-07T02:36:26;13.25;;;11.70;;
26822;SDS011;14852;51.910;8.878;2023-05-07T02:39:06;15.68;;;12.38;;
26822;SDS011;14852;51.910;8.878;2023-05-07T02:41:32;15.63;;;13.88;;
26822;SDS011;14852;51.910;8.878;2023-05-07T02:43:57;13.90;;;12.25;;
26822;SDS011;14852;51.910;8.878;2023-05-07T02:46:23;16.45;;;13.85;;
26822;SDS011;14852;51.910;8.878;2023-05-07T02:48:57;16.80;;;15.00;;
26822;SDS011;14852;51.910;8.878;2023-05-07T02:51:23;15.60;;;13.48;;
26822;SDS011;14852;51.910;8.878;2023-05-07T02:53:50;14.68;;;12.93;;
26822;SDS011;14852;51.910;8.878;2023-05-07T02:56:15;15.18;;;12.32;;
26822;SDS011;14852;51.910;8.878;2023-05-07T02:58:41;13.52;;;11.65;;
26822;SDS011;14852;51.910;8.878;2023-05-07T03:01:08;13.07;;;11.82;;
26822;SDS011;14852;51.910;8.878;2023-05-07T03:03:39;14.82;;;12.70;;
26822;SDS011;14852;51.910;8.878;2023-05-07T03:06:05;15.13;;;13.50;;
26822;SDS011;14852;51.910;8.878;2023-05-07T03:08:32;15.57;;;12.05;;
26822;SDS011;14852;51.910;8.878;2023-05-07T03:10:58;15.82;;;12.68;;
26822;SDS011;14852;51.910;8.878;2023-05-07T03:13:23;16.35;;;12.82;;
26822;SDS011;14852;51.910;8.878;2023-05-07T03:15:50;15.98;;;12.20;;
26822;SDS011;14852;51.910;8.878;2023-05-07T03:18:16;16.90;;;13.80;;
26822;SDS011;14852;51.910;8.878;2023-05-07T03:20:41;16.38;;;13.13;;
26822;SDS011;14852;51.910;8.878;2023-05-07T03:23:07;18.08;;;13.55;;
26822;SDS011;14852;51.910;8.878;2023-05-07T03:25:33;15.98;;;12.45;;
26822;SDS011;14852;51.910;8.878;2023-05-07T03:27:59;14.05;;;12.25;;
26822;SDS011;14852;51.910;8.878;2023-05-07T03:30:32;14.27;;;12.48;;
26822;SDS011;14852;51.910;8.878;2023-05-07T03:32:58;14.00;;;12.45;;
26822;SDS011;14852;51.910;8.878;2023-05-07T03:35:24;14.73;;;12.25;;
26822;SDS011;14852;51.910;8.878;2023-05-07T03:37:50;15.60;;;13.68;;
26822;SDS011;14852;51.910;8.878;2023-05-07T03:40:17;16.42;;;13.93;;
26822;SDS011;14852;51.910;8.878;2023-05-07T03:42:47;16.73;;;13.18;;
26822;SDS011;14852;51.910;8.878;2023-05-07T03:45:14;15.35;;;13.40;;
26822;SDS011;14852;51.910;8.878;2023-05-07T03:47:45;17.17;;;14.18;;
26822;SDS011;14852;51.910;8.878;2023-05-07T03:50:15;15.45;;;13.32;;
26822;SDS011;14852;51.910;8.878;2023-05-07T03:52:41;15.90;;;13.77;;
26822;SDS011;14852;51.910;8.878;2023-05-07T03:55:09;16.15;;;13.30;;
26822;SDS011;14852;51.910;8.878;2023-05-07T03:57:37;15.10;;;13.30;;
26822;SDS011;14852;51.910;8.878;2023-05-07T04:00:03;15.80;;;13.38;;
26822;SDS011;14852;51.910;8.878;2023-05-07T04:02:37;16.60;;;12.88;;
26822;SDS011;14852;51.910;8.878;2023-05-07T04:05:03;13.93;;;12.20;;
26822;SDS011;14852;51.910;8.878;2023-05-07T04:07:30;17.60;;;13.88;;
26822;SDS011;14852;51.910;8.878;2023-05-07T04:09:56;16.20;;;14.00;;
26822;SDS011;14852;51.910;8.878;2023-05-07T04:12:21;16.52;;;13.80;;
26822;SDS011;14852;51.910;8.878;2023-05-07T04:14:47;18.35;;;15.45;;
26822;SDS011;14852;51.910;8.878;2023-05-07T04:17:14;17.83;;;14.55;;
26822;SDS011;14852;51.910;8.878;2023-05-07T04:19:39;18.23;;;14.13;;
26822;SDS011;14852;51.910;8.878;2023-05-07T04:22:10;20.17;;;15.65;;
26822;SDS011;14852;51.910;8.878;2023-05-07T04:24:36;18.02;;;16.00;;
26822;SDS011;14852;51.910;8.878;2023-05-07T04:27:02;18.70;;;15.82;;
26822;SDS011;14852;51.910;8.878;2023-05-07T04:29:28;18.73;;;15.07;;
26822;SDS011;14852;51.910;8.878;2023-05-07T04:31:54;21.25;;;15.82;;
26822;SDS011;14852;51.910;8.878;2023-05-07T04:34:22;18.67;;;15.32;;
26822;SDS011;14852;51.910;8.878;2023-05-07T04:36:47;18.55;;;15.23;;
26822;SDS011;14852;51.910;8.878;2023-05-07T04:39:13;17.30;;;14.77;;
26822;SDS011;14852;51.910;8.878;2023-05-07T04:41:42;18.98;;;16.15;;
26822;SDS011;14852;51.910;8.878;2023-05-07T04:44:09;16.83;;;14.43;;
26822;SDS011;14852;51.910;8.878;2023-05-07T04:46:36;20.00;;;15.85;;
26822;SDS011;14852;51.910;8.878;2023-05-07T04:49:01;17.42;;;14.13;;
26822;SDS011;14852;51.910;8.878;2023-05-07T04:51:28;18.67;;;15.32;;
26822;SDS011;14852;51.910;8.878;2023-05-07T04:53:54;16.02;;;14.32;;
26822;SDS011;14852;51.910;8.878;2023-05-07T04:56:20;18.48;;;15.13;;
26822;SDS011;14852;51.910;8.878;2023-05-07T04:58:46;17.02;;;15.00;;
26822;SDS011;14852;51.910;8.878;2023-05-07T05:01:13;17.88;;;14.30;;
26822;SDS011;14852;51.910;8.878;2023-05-07T05:03:39;19.27;;;16.15;;
26822;SDS011;14852;51.910;8.878;2023-05-07T05:06:07;19.00;;;15.75;;
26822;SDS011;14852;51.910;8.878;2023-05-07T05:08:33;18.70;;;14.85;;
26822;SDS011;14852;51.910;8.878;2023-05-07T05:11:01;21.95;;;15.80;;
26822;SDS011;14852;51.910;8.878;2023-05-07T05:13:28;19.08;;;14.68;;
26822;SDS011;14852;51.910;8.878;2023-05-07T05:15:55;18.33;;;14.10;;
26822;SDS011;14852;51.910;8.878;2023-05-07T05:18:22;17.55;;;14.35;;
26822;SDS011;14852;51.910;8.878;2023-05-07T05:20:48;18.33;;;16.02;;
26822;SDS011;14852;51.910;8.878;2023-05-07T05:23:14;18.50;;;14.00;;
26822;SDS011;14852;51.910;8.878;2023-05-07T05:25:40;19.00;;;15.57;;
26822;SDS011;14852;51.910;8.878;2023-05-07T05:28:08;20.35;;;15.55;;
26822;SDS011;14852;51.910;8.878;2023-05-07T05:30:34;15.85;;;13.50;;
26822;SDS011;14852;51.910;8.878;2023-05-07T05:33:01;17.90;;;14.15;;
26822;SDS011;14852;51.910;8.878;2023-05-07T05:35:27;20.05;;;15.38;;
26822;SDS011;14852;51.910;8.878;2023-05-07T05:37:55;19.05;;;14.52;;
26822;SDS011;14852;51.910;8.878;2023-05-07T05:40:21;15.98;;;13.18;;
26822;SDS011;14852;51.910;8.878;2023-05-07T05:42:47;16.05;;;14.30;;
26822;SDS011;14852;51.910;8.878;2023-05-07T05:45:15;17.10;;;14.60;;
26822;SDS011;14852;51.910;8.878;2023-05-07T05:47:41;18.65;;;14.48;;
26822;SDS011;14852;51.910;8.878;2023-05-07T05:50:07;20.10;;;15.85;;
26822;SDS011;14852;51.910;8.878;2023-05-07T05:52:33;17.80;;;15.82;;
26822;SDS011;14852;51.910;8.878;2023-05-07T05:55:00;23.55;;;17.25;;
26822;SDS011;14852;51.910;8.878;2023-05-07T05:57:26;24.25;;;18.02;;
26822;SDS011;14852;51.910;8.878;2023-05-07T05:59:52;19.63;;;16.67;;
26822;SDS011;14852;51.910;8.878;2023-05-07T06:02:18;21.73;;;18.60;;
26822;SDS011;14852;51.910;8.878;2023-05-07T06:04:44;20.45;;;15.82;;
26822;SDS011;14852;51.910;8.878;2023-05-07T06:07:15;19.90;;;15.75;;
26822;SDS011;14852;51.910;8.878;2023-05-07T06:09:41;19.35;;;15.63;;
26822;SDS011;14852;51.910;8.878;2023-05-07T06:12:07;16.75;;;14.43;;
26822;SDS011;14852;51.910;8.878;2023-05-07T06:14:33;16.42;;;14.43;;
26822;SDS011;14852;51.910;8.878;2023-05-07T06:16:59;15.65;;;13.38;;
26822;SDS011;14852;51.910;8.878;2023-05-07T06:19:25;15.48;;;12.93;;
26822;SDS011;14852;51.910;8.878;2023-05-07T06:21:54;15.63;;;13.23;;
26822;SDS011;14852;51.910;8.878;2023-05-07T06:24:22;14.23;;;12.57;;
26822;SDS011;14852;51.910;8.878;2023-05-07T06:26:49;15.77;;;13.23;;
26822;SDS011;14852;51.910;8.878;2023-05-07T06:29:15;15.65;;;12.57;;
26822;SDS011;14852;51.910;8.878;2023-05-07T06:31:41;16.50;;;13.88;;
26822;SDS011;14852;51.910;8.878;2023-05-07T06:34:09;15.45;;;11.98;;
26822;SDS011;14852;51.910;8.878;2023-05-07T06:36:40;15.70;;;13.82;;
26822;SDS011;14852;51.910;8.878;2023-05-07T06:39:14;18.02;;;14.05;;
26822;SDS011;14852;51.910;8.878;2023-05-07T06:41:40;15.88;;;12.63;;
26822;SDS011;14852;51.910;8.878;2023-05-07T06:44:15;20.15;;;13.50;;
26822;SDS011;14852;51.910;8.878;2023-05-07T06:46:43;16.20;;;13.20;;
26822;SDS011;14852;51.910;8.878;2023-05-07T06:49:12;15.88;;;13.13;;
26822;SDS011;14852;51.910;8.878;2023-05-07T06:51:39;15.30;;;13.10;;
26822;SDS011;14852;51.910;8.878;2023-05-07T06:54:05;12.93;;;10.90;;
26822;SDS011;14852;51.910;8.878;2023-05-07T06:56:33;15.00;;;12.30;;
26822;SDS011;14852;51.910;8.878;2023-05-07T06:59:00;13.73;;;11.38;;
26822;SDS011;14852;51.910;8.878;2023-05-07T07:01:31;16.05;;;11.10;;
26822;SDS011;14852;51.910;8.878;2023-05-07T07:03:58;11.98;;;10.73;;
26822;SDS011;14852;51.910;8.878;2023-05-07T07:06:24;13.35;;;11.25;;
26822;SDS011;14852;51.910;8.878;2023-05-07T07:08:50;12.55;;;10.45;;
26822;SDS011;14852;51.910;8.878;2023-05-07T07:11:17;13.32;;;10.95;;
26822;SDS011;14852;51.910;8.878;2023-05-07T07:13:43;12.80;;;11.27;;
26822;SDS011;14852;51.910;8.878;2023-05-07T07:16:08;13.02;;;11.30;;
26822;SDS011;14852;51.910;8.878;2023-05-07T07:18:35;13.57;;;10.98;;
26822;SDS011;14852;51.910;8.878;2023-05-07T07:21:01;12.75;;;10.13;;
26822;SDS011;14852;51.910;8.878;2023-05-07T07:23:27;12.82;;;11.00;;
26822;SDS011;14852;51.910;8.878;2023-05-07T07:25:53;13.40;;;11.07;;
26822;SDS011;14852;51.910;8.878;2023-05-07T07:28:20;11.00;;;9.80;;
26822;SDS011;14852;51.910;8.878;2023-05-07T07:30:47;13.07;;;10.30;;
26822;SDS011;14852;51.910;8.878;2023-05-07T07:33:14;12.85;;;10.70;;
26822;SDS011;14852;51.910;8.878;2023-05-07T07:35:40;13.10;;;10.75;;
26822;SDS011;14852;51.910;8.878;2023-05-07T07:38:06;12.68;;;10.32;;
26822;SDS011;14852;51.910;8.878;2023-05-07T07:40:34;14.40;;;10.52;;
26822;SDS011;14852;51.910;8.878;2023-05-07T07:43:03;12.95;;;11.65;;
26822;SDS011;14852;51.910;8.878;2023-05-07T07:45:30;13.55;;;10.85;;
26822;SDS011;14852;51.910;8.878;2023-05-07T07:47:56;16.73;;;10.85;;
26822;SDS011;14852;51.910;8.878;2023-05-07T07:50:22;13.02;;;10.45;;
26822;SDS011;14852;51.910;8.878;2023-05-07T07:52:49;11.18;;;9.82;;
26822;SDS011;14852;51.910;8.878;2023-05-07T07:55:15;13.27;;;11.75;;
26822;SDS011;14852;51.910;8.878;2023-05-07T07:57:49;11.63;;;9.60;;
26822;SDS011;14852;51.910;8.878;2023-05-07T08:00:15;15.82;;;10.90;;
26822;SDS011;14852;51.910;8.878;2023-05-07T08:05:20;12.13;;;10.40;;
26822;SDS011;14852;51.910;8.878;2023-05-07T08:07:48;11.85;;;10.57;;
26822;SDS011;14852;51.910;8.878;2023-05-07T08:10:19;9.77;;;8.60;;
26822;SDS011;14852;51.910;8.878;2023-05-07T08:12:48;10.88;;;9.77;;
26822;SDS011;14852;51.910;8.878;2023-05-07T08:15:15;11.98;;;9.50;;
26822;SDS011;14852;51.910;8.878;2023-05-07T08:17:42;12.75;;;10.00;;
26822;SDS011;14852;51.910;8.878;2023-05-07T08:20:08;11.35;;;9.85;;
26822;SDS011;14852;51.910;8.878;2023-05-07T08:22:38;10.73;;;8.82;;
26822;SDS011;14852;51.910;8.878;2023-05-07T08:25:05;12.63;;;10.90;;
26822;SDS011;14852;51.910;8.878;2023-05-07T08:27:31;11.82;;;10.05;;
26822;SDS011;14852;51.910;8.878;2023-05-07T08:29:57;12.82;;;11.02;;
26822;SDS011;14852;51.910;8.878;2023-05-07T08:32:23;11.93;;;10.00;;
26822;SDS011;14852;51.910;8.878;2023-05-07T08:34:49;12.88;;;9.30;;
26822;SDS011;14852;51.910;8.878;2023-05-07T08:37:15;11.32;;;9.98;;
26822;SDS011;14852;51.910;8.878;2023-05-07T08:39:41;12.00;;;9.43;;
26822;SDS011;14852;51.910;8.878;2023-05-07T08:42:14;10.73;;;9.15;;
26822;SDS011;14852;51.910;8.878;2023-05-07T08:44:44;11.30;;;8.90;;
26822;SDS011;14852;51.910;8.878;2023-05-07T08:47:15;11.93;;;9.35;;
26822;SDS011;14852;51.910;8.878;2023-05-07T08:49:43;10.15;;;8.88;;
26822;SDS011;14852;51.910;8.878;2023-05-07T08:52:09;9.27;;;8.20;;
26822;SDS011;14852;51.910;8.878;2023-05-07T08:54:37;10.10;;;9.10;;
26822;SDS011;14852;51.910;8.878;2023-05-07T08:57:06;13.13;;;10.32;;
26822;SDS011;14852;51.910;8.878;2023-05-07T08:59:33;10.60;;;8.77;;
26822;SDS011;14852;51.910;8.878;2023-05-07T09:01:59;10.85;;;8.80;;
26822;SDS011;14852;51.910;8.878;2023-05-07T09:04:26;9.00;;;7.75;;
26822;SDS011;14852;51.910;8.878;2023-05-07T09:06:53;13.98;;;10.77;;
26822;SDS011;14852;51.910;8.878;2023-05-07T09:09:21;12.25;;;8.65;;
26822;SDS011;14852;51.910;8.878;2023-05-07T09:11:54;10.90;;;8.98;;
26822;SDS011;14852;51.910;8.878;2023-05-07T09:14:25;9.90;;;8.00;;
26822;SDS011;14852;51.910;8.878;2023-05-07T09:16:54;10.35;;;9.25;;
26822;SDS011;14852;51.910;8.878;2023-05-07T09:19:24;10.30;;;8.82;;
26822;SDS011;14852;51.910;8.878;2023-05-07T09:22:02;11.48;;;8.98;;
26822;SDS011;14852;51.910;8.878;2023-05-07T09:24:40;11.60;;;9.20;;
26822;SDS011;14852;51.910;8.878;2023-05-07T09:27:12;10.65;;;8.73;;
26822;SDS011;14852;51.910;8.878;2023-05-07T09:29:38;10.48;;;8.75;;
26822;SDS011;14852;51.910;8.878;2023-05-07T09:32:05;8.98;;;7.93;;
26822;SDS011;14852;51.910;8.878;2023-05-07T09:34:33;10.45;;;8.98;;
26822;SDS011;14852;51.910;8.878;2023-05-07T09:37:03;10.32;;;9.23;;
26822;SDS011;14852;51.910;8.878;2023-05-07T09:39:45;12.40;;;9.43;;
26822;SDS011;14852;51.910;8.878;2023-05-07T09:42:15;11.73;;;9.13;;
26822;SDS011;14852;51.910;8.878;2023-05-07T09:44:45;10.57;;;9.00;;
26822;SDS011;14852;51.910;8.878;2023-05-07T09:47:20;10.07;;;8.50;;
26822;SDS011;14852;51.910;8.878;2023-05-07T09:49:53;10.43;;;8.77;;
26822;SDS011;14852;51.910;8.878;2023-05-07T09:52:23;10.18;;;8.85;;
26822;SDS011;14852;51.910;8.878;2023-05-07T09:54:54;8.80;;;7.88;;
26822;SDS011;14852;51.910;8.878;2023-05-07T09:57:25;11.13;;;9.93;;
26822;SDS011;14852;51.910;8.878;2023-05-07T09:59:57;9.93;;;7.28;;
26822;SDS011;14852;51.910;8.878;2023-05-07T10:02:26;10.45;;;8.90;;
26822;SDS011;14852;51.910;8.878;2023-05-07T10:04:55;9.25;;;8.13;;
26822;SDS011;14852;51.910;8.878;2023-05-07T10:07:26;10.35;;;8.20;;
26822;SDS011;14852;51.910;8.878;2023-05-07T10:09:56;9.45;;;8.40;;
26822;SDS011;14852;51.910;8.878;2023-05-07T10:12:33;11.32;;;8.50;;
26822;SDS011;14852;51.910;8.878;2023-05-07T10:15:06;8.07;;;7.18;;
26822;SDS011;14852;51.910;8.878;2023-05-07T10:17:39;8.27;;;7.47;;
26822;SDS011;14852;51.910;8.878;2023-05-07T10:20:07;10.13;;;7.65;;
26822;SDS011;14852;51.910;8.878;2023-05-07T10:22:40;10.85;;;8.48;;
26822;SDS011;14852;51.910;8.878;2023-05-07T10:25:18;8.80;;;6.93;;
26822;SDS011;14852;51.910;8.878;2023-05-07T10:27:57;7.43;;;6.68;;
26822;SDS011;14852;51.910;8.878;2023-05-07T10:30:38;9.27;;;6.63;;
26822;SDS011;14852;51.910;8.878;2023-05-07T10:33:28;7.57;;;6.88;;
26822;SDS011;14852;51.910;8.878;2023-05-07T10:35:59;8.50;;;7.03;;
26822;SDS011;14852;51.910;8.878;2023-05-07T10:38:29;6.50;;;5.85;;
26822;SDS011;14852;51.910;8.878;2023-05-07T10:40:55;7.10;;;5.97;;
26822;SDS011;14852;51.910;8.878;2023-05-07T10:43:21;6.13;;;5.53;;
26822;SDS011;14852;51.910;8.878;2023-05-07T10:46:13;6.25;;;5.43;;
26822;SDS011;14852;51.910;8.878;2023-05-07T10:51:35;6.35;;;5.60;;
26822;SDS011;14852;51.910;8.878;2023-05-07T10:56:52;6.45;;;5.80;;
26822;SDS011;14852;51.910;8.878;2023-05-07T11:02:07;7.55;;;5.30;;
26822;SDS011;14852;51.910;8.878;2023-05-07T11:04:40;7.15;;;5.97;;
26822;SDS011;14852;51.910;8.878;2023-05-07T11:07:20;7.95;;;5.47;;
26822;SDS011;14852;51.910;8.878;2023-05-07T11:09:59;5.32;;;4.82;;
26822;SDS011;14852;51.910;8.878;2023-05-07T11:12:50;6.00;;;4.63;;
26822;SDS011;14852;51.910;8.878;2023-05-07T11:15:33;5.00;;;4.50;;
26822;SDS011;14852;51.910;8.878;2023-05-07T11:18:17;7.18;;;4.93;;
26822;SDS011;14852;51.910;8.878;2023-05-07T11:20:45;6.05;;;5.20;;
26822;SDS011;14852;51.910;8.878;2023-05-07T11:26:29;5.15;;;4.65;;
26822;SDS011;14852;51.910;8.878;2023-05-07T11:29:10;5.35;;;4.72;;
26822;SDS011;14852;51.910;8.878;2023-05-07T11:31:48;6.28;;;4.72;;
26822;SDS011;14852;51.910;8.878;2023-05-07T11:34:24;6.83;;;5.07;;
26822;SDS011;14852;51.910;8.878;2023-05-07T11:36:53;6.38;;;4.45;;
26822;SDS011;14852;51.910;8.878;2023-05-07T11:42:01;5.65;;;5.05;;
26822;SDS011;14852;51.910;8.878;2023-05-07T11:44:43;6.55;;;5.30;;
26822;SDS011;14852;51.910;8.878;2023-05-07T11:47:11;4.90;;;4.38;;
26822;SDS011;14852;51.910;8.878;2023-05-07T11:49:48;5.50;;;4.57;;
26822;SDS011;14852;51.910;8.878;2023-05-07T11:52:15;5.68;;;4.30;;
26822;SDS011;14852;51.910;8.878;2023-05-07T11:54:49;5.50;;;4.85;;
26822;SDS011;14852;51.910;8.878;2023-05-07T11:57:21;5.22;;;4.35;;
26822;SDS011;14852;51.910;8.878;2023-05-07T11:59:48;8.13;;;4.47;;
26822;SDS011;14852;51.910;8.878;2023-05-07T12:02:25;5.13;;;4.63;;
26822;SDS011;14852;51.910;8.878;2023-05-07T12:04:53;6.00;;;4.65;;
26822;SDS011;14852;51.910;8.878;2023-05-07T12:07:23;5.38;;;4.30;;
26822;SDS011;14852;51.910;8.878;2023-05-07T12:09:49;6.93;;;4.93;;
26822;SDS011;14852;51.910;8.878;2023-05-07T12:12:15;6.10;;;4.90;;
26822;SDS011;14852;51.910;8.878;2023-05-07T12:14:42;6.90;;;4.95;;
26822;SDS011;14852;51.910;8.878;2023-05-07T12:17:11;4.40;;;3.83;;
26822;SDS011;14852;51.910;8.878;2023-05-07T12:19:39;5.22;;;4.40;;
26822;SDS011;14852;51.910;8.878;2023-05-07T12:22:07;4.88;;;4.18;;
26822;SDS011;14852;51.910;8.878;2023-05-07T12:24:43;4.57;;;4.07;;
26822;SDS011;14852;51.910;8.878;2023-05-07T12:27:22;5.70;;;5.10;;
26822;SDS011;14852;51.910;8.878;2023-05-07T12:29:48;6.53;;;5.43;;
26822;SDS011;14852;51.910;8.878;2023-05-07T12:32:16;6.47;;;5.80;;
26822;SDS011;14852;51.910;8.878;2023-05-07T12:34:43;6.60;;;5.20;;
26822;SDS011;14852;51.910;8.878;2023-05-07T12:37:10;5.88;;;5.28;;
26822;SDS011;14852;51.910;8.878;2023-05-07T12:39:36;5.25;;;4.75;;
26822;SDS011;14852;51.910;8.878;2023-05-07T12:42:01;4.65;;;4.20;;
26822;SDS011;14852;51.910;8.878;2023-05-07T12:44:31;4.85;;;4.28;;
26822;SDS011;14852;51.910;8.878;2023-05-07T12:46:58;6.55;;;4.90;;
26822;SDS011;14852;51.910;8.878;2023-05-07T12:49:27;5.07;;;4.32;;
26822;SDS011;14852;51.910;8.878;2023-05-07T12:51:53;5.95;;;4.65;;
26822;SDS011;14852;51.910;8.878;2023-05-07T12:54:37;5.63;;;4.72;;
26822;SDS011;14852;51.910;8.878;2023-05-07T12:57:07;5.53;;;4.93;;
26822;SDS011;14852;51.910;8.878;2023-05-07T12:59:35;6.32;;;5.18;;
26822;SDS011;14852;51.910;8.878;2023-05-07T13:02:04;6.22;;;5.68;;
26822;SDS011;14852;51.910;8.878;2023-05-07T13:04:30;6.43;;;4.68;;
26822;SDS011;14852;51.910;8.878;2023-05-07T13:06:56;4.70;;;4.20;;
26822;SDS011;14852;51.910;8.878;2023-05-07T13:09:23;7.93;;;5.10;;
26822;SDS011;14852;51.910;8.878;2023-05-07T13:11:48;6.53;;;5.90;;
26822;SDS011;14852;51.910;8.878;2023-05-07T13:14:14;5.70;;;5.10;;
26822;SDS011;14852;51.910;8.878;2023-05-07T13:16:40;7.07;;;5.70;;
26822;SDS011;14852;51.910;8.878;2023-05-07T13:19:06;6.50;;;5.60;;
26822;SDS011;14852;51.910;8.878;2023-05-07T13:21:32;6.35;;;5.75;;
26822;SDS011;14852;51.910;8.878;2023-05-07T13:23:58;6.50;;;5.80;;
26822;SDS011;14852;51.910;8.878;2023-05-07T13:26:24;6.80;;;6.10;;
26822;SDS011;14852;51.910;8.878;2023-05-07T13:28:51;7.10;;;6.43;;
26822;SDS011;14852;51.910;8.878;2023-05-07T13:31:18;6.95;;;6.25;;
26822;SDS011;14852;51.910;8.878;2023-05-07T13:33:45;7.45;;;6.68;;
26822;SDS011;14852;51.910;8.878;2023-05-07T13:36:11;7.70;;;6.90;;
26822;SDS011;14852;51.910;8.878;2023-05-07T13:38:37;7.03;;;6.32;;
26822;SDS011;14852;51.910;8.878;2023-05-07T13:41:04;7.43;;;6.65;;
26822;SDS011;14852;51.910;8.878;2023-05-07T13:43:30;7.45;;;6.65;;
26822;SDS011;14852;51.910;8.878;2023-05-07T13:45:57;7.45;;;6.47;;
26822;SDS011;14852;51.910;8.878;2023-05-07T13:48:23;7.32;;;6.50;;
26822;SDS011;14852;51.910;8.878;2023-05-07T13:50:48;7.95;;;6.78;;
26822;SDS011;14852;51.910;8.878;2023-05-07T13:53:14;7.97;;;7.18;;
26822;SDS011;14852;51.910;8.878;2023-05-07T13:55:43;6.95;;;6.22;;
26822;SDS011;14852;51.910;8.878;2023-05-07T13:58:10;7.03;;;6.32;;
26822;SDS011;14852;51.910;8.878;2023-05-07T14:00:36;6.20;;;5.63;;
26822;SDS011;14852;51.910;8.878;2023-05-07T14:03:02;7.90;;;7.10;;
26822;SDS011;14852;51.910;8.878;2023-05-07T14:05:29;7.80;;;7.03;;
26822;SDS011;14852;51.910;8.878;2023-05-07T14:07:56;6.80;;;6.20;;
26822;SDS011;14852;51.910;8.878;2023-05-07T14:10:23;7.35;;;6.35;;
26822;SDS011;14852;51.910;8.878;2023-05-07T14:12:49;7.78;;;6.97;;
26822;SDS011;14852;51.910;8.878;2023-05-07T14:15:15;7.15;;;6.47;;
26822;SDS011;14852;51.910;8.878;2023-05-07T14:17:41;7.80;;;7.03;;
26822;SDS011;14852;51.910;8.878;2023-05-07T14:20:08;7.40;;;6.60;;
26822;SDS011;14852;51.910;8.878;2023-05-07T14:22:36;7.47;;;6.75;;
26822;SDS011;14852;51.910;8.878;2023-05-07T14:25:03;7.38;;;6.68;;
26822;SDS011;14852;51.910;8.878;2023-05-07T14:27:29;8.13;;;7.35;;
26822;SDS011;14852;51.910;8.878;2023-05-07T14:29:55;8.65;;;7.00;;
26822;SDS011;14852;51.910;8.878;2023-05-07T14:32:21;8.25;;;7.40;;
26822;SDS011;14852;51.910;8.878;2023-05-07T14:34:47;8.85;;;7.90;;
26822;SDS011;14852;51.910;8.878;2023-05-07T14:37:12;8.68;;;7.80;;
26822;SDS011;14852;51.910;8.878;2023-05-07T14:39:38;9.98;;;8.98;;
26822;SDS011;14852;51.910;8.878;2023-05-07T14:42:04;7.40;;;6.53;;
26822;SDS011;14852;51.910;8.878;2023-05-07T14:44:32;8.38;;;7.35;;
26822;SDS011;14852;51.910;8.878;2023-05-07T14:47:01;9.50;;;8.45;;
26822;SDS011;14852;51.910;8.878;2023-05-07T14:49:27;8.68;;;7.78;;
26822;SDS011;14852;51.910;8.878;2023-05-07T14:51:53;8.68;;;7.88;;
26822;SDS011;14852;51.910;8.878;2023-05-07T14:54:19;8.73;;;7.82;;
26822;SDS011;14852;51.910;8.878;2023-05-07T14:56:45;8.20;;;7.40;;